createdAt,value
2018-08-23T00:00:46.487Z,11.67
2018-08-23T00:03:20.281Z,14.90
2018-08-23T00:05:51.654Z,14.10
2018-08-23T00:08:19.316Z,15.27
2018-08-23T00:10:47.175Z,17.23
2018-08-23T00:13:14.355Z,14.55
2018-08-23T00:15:41.474Z,12.57
2018-08-23T00:18:08.639Z,12.63
2018-08-23T00:20:36.190Z,14.45
2018-08-23T00:23:04.068Z,11.63
2018-08-23T00:25:31.950Z,16.00
2018-08-23T00:27:59.078Z,12.20
2018-08-23T00:30:28.262Z,13.50
2018-08-23T00:32:55.773Z,11.83
2018-08-23T00:35:22.898Z,13.83
2018-08-23T00:37:50.066Z,14.93
2018-08-23T00:40:17.647Z,13.28
2018-08-23T00:42:46.991Z,15.83
2018-08-23T00:45:16.387Z,13.23
2018-08-23T00:47:43.690Z,14.63
2018-08-23T00:50:13.492Z,14.60
2018-08-23T00:52:45.786Z,15.07
2018-08-23T00:55:14.765Z,13.83
2018-08-23T00:57:42.095Z,13.97
2018-08-23T01:00:10.774Z,13.77
2018-08-23T01:02:37.914Z,13.23
2018-08-23T01:05:05.101Z,18.57
2018-08-23T01:07:33.149Z,20.30
2018-08-23T01:10:00.280Z,14.33
2018-08-23T01:12:27.873Z,12.97
2018-08-23T01:14:55.022Z,14.80
2018-08-23T01:17:22.155Z,13.87
2018-08-23T01:19:59.077Z,13.63
2018-08-23T01:22:26.231Z,16.13
2018-08-23T01:24:53.360Z,18.07
2018-08-23T01:27:26.267Z,22.10
2018-08-23T01:29:53.382Z,15.50
2018-08-23T01:32:26.395Z,15.17
2018-08-23T01:34:53.509Z,13.40
2018-08-23T01:37:33.082Z,15.87
2018-08-23T01:40:01.246Z,17.33
2018-08-23T01:42:33.455Z,17.57
2018-08-23T01:45:01.831Z,18.10
2018-08-23T01:47:33.255Z,14.07
2018-08-23T01:50:00.426Z,17.03
2018-08-23T01:52:27.559Z,17.77
2018-08-23T01:54:55.003Z,20.77
2018-08-23T01:57:26.700Z,17.57
2018-08-23T01:59:53.813Z,21.50
2018-08-23T02:02:21.046Z,19.10
2018-08-23T02:04:48.197Z,20.67
2018-08-23T02:07:15.485Z,17.77
2018-08-23T02:09:42.612Z,16.00
2018-08-23T02:12:09.731Z,15.53
2018-08-23T02:14:41.446Z,14.13
2018-08-23T02:17:08.526Z,17.57
2018-08-23T02:19:41.645Z,19.83
2018-08-23T02:22:08.749Z,20.00
2018-08-23T02:24:35.851Z,15.27
2018-08-23T02:27:02.994Z,18.07
2018-08-23T02:29:38.546Z,13.30
2018-08-23T02:32:06.603Z,13.23
2018-08-23T02:34:38.663Z,17.27
2018-08-23T02:37:05.795Z,18.10
2018-08-23T02:39:32.927Z,16.20
2018-08-23T02:42:00.096Z,13.83
2018-08-23T02:44:27.199Z,18.37
2018-08-23T02:46:54.375Z,19.37
2018-08-23T02:49:21.500Z,25.43
2018-08-23T02:51:50.978Z,24.80
2018-08-23T02:54:18.228Z,16.77
2018-08-23T02:56:50.510Z,18.20
2018-08-23T02:59:17.738Z,19.67
2018-08-23T03:01:46.289Z,16.23
2018-08-23T03:04:19.560Z,24.07
2018-08-23T03:06:52.488Z,18.80
2018-08-23T03:09:28.497Z,20.27
2018-08-23T03:11:56.746Z,18.80
2018-08-23T03:14:24.746Z,23.70
2018-08-23T03:17:30.339Z,16.67
2018-08-23T03:20:22.835Z,19.33
2018-08-23T03:22:54.015Z,14.47
2018-08-23T03:25:22.415Z,25.73
2018-08-23T03:27:50.966Z,24.57
2018-08-23T03:30:18.881Z,19.07
2018-08-23T03:32:46.115Z,22.30
2018-08-23T03:35:13.294Z,16.90
2018-08-23T03:37:40.493Z,15.77
2018-08-23T03:40:08.869Z,18.30
2018-08-23T03:42:36.003Z,19.97
2018-08-23T03:45:03.165Z,25.03
2018-08-23T03:47:35.332Z,20.53
2018-08-23T03:50:02.482Z,20.37
2018-08-23T03:52:35.560Z,21.90
2018-08-23T03:55:02.748Z,22.27
2018-08-23T03:57:35.651Z,21.70
2018-08-23T04:00:02.843Z,17.43
2018-08-23T04:02:30.024Z,19.33
2018-08-23T04:05:05.711Z,21.20
2018-08-23T04:07:32.853Z,22.40
2018-08-23T04:09:59.983Z,15.83
2018-08-23T04:12:27.078Z,18.93
2018-08-23T04:14:55.186Z,18.67
2018-08-23T04:17:22.286Z,17.83
2018-08-23T04:19:49.449Z,17.50
2018-08-23T04:22:17.260Z,22.27
2018-08-23T04:24:54.218Z,25.77
2018-08-23T04:27:21.375Z,23.47
2018-08-23T04:29:49.208Z,20.77
2018-08-23T04:32:28.953Z,22.90
2018-08-23T04:34:57.576Z,23.10
2018-08-23T04:37:25.128Z,23.43
2018-08-23T04:39:58.035Z,22.17
2018-08-23T04:42:25.169Z,21.20
2018-08-23T04:44:52.334Z,19.40
2018-08-23T04:47:19.956Z,22.87
2018-08-23T04:49:47.124Z,18.33
2018-08-23T04:52:14.386Z,24.03
2018-08-23T04:54:41.515Z,19.87
2018-08-23T04:57:08.639Z,23.20
2018-08-23T04:59:35.782Z,23.53
2018-08-23T05:02:03.018Z,28.10
2018-08-23T05:04:30.280Z,22.80
2018-08-23T05:06:57.416Z,24.10
2018-08-23T05:09:24.923Z,21.77
2018-08-23T05:11:52.201Z,24.00
2018-08-23T05:14:19.363Z,19.70
2018-08-23T05:16:46.610Z,23.53
2018-08-23T05:19:13.878Z,22.20
2018-08-23T05:21:41.067Z,21.67
2018-08-23T05:24:11.590Z,21.70
2018-08-23T05:26:39.022Z,23.63
2018-08-23T05:29:07.172Z,18.42
2018-08-23T05:31:34.470Z,22.02
2018-08-23T05:34:03.723Z,21.65
2018-08-23T05:36:30.870Z,20.57
2018-08-23T05:38:58.329Z,16.42
2018-08-23T05:41:25.466Z,22.05
2018-08-23T05:44:02.350Z,22.40
2018-08-23T05:46:34.613Z,18.17
2018-08-23T05:49:01.739Z,16.27
2018-08-23T05:51:30.193Z,23.15
2018-08-23T05:53:57.553Z,19.32
2018-08-23T05:56:24.923Z,20.20
2018-08-23T05:58:53.445Z,17.52
2018-08-23T06:01:20.557Z,17.75
2018-08-23T06:03:47.761Z,15.72
2018-08-23T06:06:14.923Z,23.55
2018-08-23T06:08:47.270Z,17.77
2018-08-23T06:11:15.113Z,20.23
2018-08-23T06:13:42.219Z,21.40
2018-08-23T06:16:09.333Z,24.82
2018-08-23T06:18:36.481Z,18.27
2018-08-23T06:21:10.499Z,19.70
2018-08-23T06:23:58.811Z,16.93
2018-08-23T06:26:38.943Z,21.45
2018-08-23T06:29:06.574Z,17.73
2018-08-23T06:31:33.754Z,17.00
2018-08-23T06:34:00.932Z,19.05
2018-08-23T06:36:29.102Z,26.90
2018-08-23T06:39:00.127Z,17.32
2018-08-23T06:41:27.876Z,17.37
2018-08-23T06:43:55.122Z,16.70
2018-08-23T06:46:22.250Z,20.82
2018-08-23T06:48:49.446Z,20.65
2018-08-23T06:51:16.709Z,17.85
2018-08-23T06:53:44.746Z,22.93
2018-08-23T06:56:11.911Z,27.62
2018-08-23T06:58:39.055Z,18.35
2018-08-23T07:01:11.875Z,25.65
2018-08-23T07:03:45.235Z,22.82
2018-08-23T07:06:12.391Z,22.15
2018-08-23T07:08:39.539Z,23.20
2018-08-23T07:11:12.407Z,18.80
2018-08-23T07:13:39.545Z,21.52
2018-08-23T07:16:06.680Z,19.50
2018-08-23T07:18:33.778Z,17.77
2018-08-23T07:21:00.972Z,20.90
2018-08-23T07:23:29.515Z,20.45
2018-08-23T07:25:56.655Z,19.57
2018-08-23T07:28:23.771Z,17.90
2018-08-23T07:30:52.644Z,21.33
2018-08-23T07:33:19.860Z,17.02
2018-08-23T07:35:52.621Z,18.02
2018-08-23T07:38:19.758Z,18.48
2018-08-23T07:40:46.986Z,16.30
2018-08-23T07:43:14.704Z,16.93
2018-08-23T07:45:41.805Z,14.35
2018-08-23T07:48:08.913Z,20.57
2018-08-23T07:50:36.027Z,17.07
2018-08-23T07:53:03.273Z,20.62
2018-08-23T07:55:30.355Z,17.02
2018-08-23T07:57:57.474Z,18.40
2018-08-23T08:00:25.186Z,17.77
2018-08-23T08:02:52.379Z,17.73
2018-08-23T08:05:19.823Z,16.32
2018-08-23T08:07:47.009Z,13.72
2018-08-23T08:10:18.248Z,13.30
2018-08-23T08:12:50.531Z,14.03
2018-08-23T08:15:18.539Z,19.90
2018-08-23T08:17:45.935Z,18.50
2018-08-23T08:20:13.143Z,15.30
2018-08-23T08:22:40.256Z,21.65
2018-08-23T08:25:13.353Z,19.02
2018-08-23T08:27:40.560Z,24.50
2018-08-23T08:30:09.363Z,20.85
2018-08-23T08:32:36.530Z,21.23
2018-08-23T08:35:03.694Z,21.52
2018-08-23T08:37:30.794Z,30.40
2018-08-23T08:39:57.952Z,22.05
2018-08-23T08:42:25.842Z,26.60
2018-08-23T08:44:55.453Z,22.67
2018-08-23T08:47:22.614Z,25.35
2018-08-23T08:49:49.813Z,21.33
2018-08-23T08:52:17.016Z,22.20
2018-08-23T08:54:44.271Z,23.35
2018-08-23T08:57:11.484Z,21.27
2018-08-23T08:59:38.542Z,19.70
2018-08-23T09:02:05.699Z,23.20
2018-08-23T09:04:35.696Z,21.12
2018-08-23T09:07:02.851Z,17.70
2018-08-23T09:09:31.879Z,23.00
2018-08-23T09:12:01.994Z,20.27
2018-08-23T09:14:29.110Z,21.75
2018-08-23T09:16:56.279Z,22.10
2018-08-23T09:19:33.679Z,20.90
2018-08-23T09:22:05.444Z,30.52
2018-08-23T09:24:32.571Z,22.85
2018-08-23T09:26:59.771Z,19.98
2018-08-23T09:29:35.522Z,16.90
2018-08-23T09:32:15.999Z,21.73
2018-08-23T09:34:43.292Z,21.35
2018-08-23T09:37:10.404Z,20.08
2018-08-23T09:39:38.292Z,23.83
2018-08-23T09:42:05.443Z,23.70
2018-08-23T09:44:32.631Z,24.70
2018-08-23T09:47:04.091Z,20.80
2018-08-23T09:49:31.212Z,20.48
2018-08-23T09:51:58.364Z,18.40
2018-08-23T09:54:28.316Z,18.45
2018-08-23T09:56:55.679Z,13.05
2018-08-23T09:59:22.933Z,15.35
2018-08-23T10:01:55.847Z,17.87
2018-08-23T10:04:28.740Z,14.13
2018-08-23T10:07:01.846Z,17.05
2018-08-23T10:09:30.025Z,20.80
2018-08-23T10:13:02.119Z,16.05
2018-08-23T10:15:35.072Z,16.75
2018-08-23T10:18:07.809Z,14.03
2018-08-23T10:20:43.316Z,15.95
2018-08-23T10:23:16.260Z,13.93
2018-08-23T10:25:48.932Z,28.57
2018-08-23T10:28:17.268Z,16.07
2018-08-23T10:30:44.899Z,16.85
2018-08-23T10:33:12.053Z,11.22
2018-08-23T10:35:43.807Z,13.50
2018-08-23T10:38:13.508Z,11.15
2018-08-23T10:40:40.698Z,17.52
2018-08-23T10:43:07.787Z,13.70
2018-08-23T10:45:34.902Z,12.88
2018-08-23T10:48:07.887Z,18.23
2018-08-23T10:50:35.048Z,13.65
2018-08-23T10:53:02.184Z,17.57
2018-08-23T10:55:29.371Z,8.60
2018-08-23T10:57:56.554Z,11.90
2018-08-23T11:00:23.703Z,16.02
2018-08-23T11:02:50.878Z,11.30
2018-08-23T11:05:18.063Z,15.13
2018-08-23T11:07:51.210Z,7.30
2018-08-23T11:10:24.066Z,9.38
2018-08-23T11:12:57.227Z,10.23
2018-08-23T11:15:25.107Z,8.33
2018-08-23T11:17:58.006Z,10.60
2018-08-23T11:20:26.018Z,7.47
2018-08-23T11:22:53.183Z,8.18
2018-08-23T11:25:21.057Z,9.45
2018-08-23T11:27:48.306Z,5.60
2018-08-23T11:30:15.547Z,6.92
2018-08-23T11:32:42.750Z,5.55
2018-08-23T11:35:10.070Z,4.17
2018-08-23T11:37:37.162Z,3.65
2018-08-23T11:40:04.331Z,4.40
2018-08-23T11:42:31.460Z,6.60
2018-08-23T11:44:58.567Z,6.40
2018-08-23T11:47:25.698Z,3.70
2018-08-23T11:49:52.840Z,3.67
2018-08-23T11:52:20.017Z,5.67
2018-08-23T11:54:47.221Z,3.60
2018-08-23T11:57:14.429Z,6.08
2018-08-23T11:59:41.609Z,3.72
2018-08-23T12:02:08.785Z,7.95
2018-08-23T12:04:35.923Z,2.90
2018-08-23T12:07:03.039Z,5.37
2018-08-23T12:09:31.075Z,4.55
2018-08-23T12:11:58.207Z,4.90
2018-08-23T12:14:25.465Z,2.45
2018-08-23T12:16:53.037Z,5.03
2018-08-23T12:19:20.235Z,2.75
2018-08-23T12:21:47.580Z,3.42
2018-08-23T12:24:14.741Z,2.80
2018-08-23T12:26:41.871Z,3.72
2018-08-23T12:29:09.529Z,4.70
2018-08-23T12:31:36.884Z,4.35
2018-08-23T12:34:06.116Z,3.00
2018-08-23T12:36:39.885Z,4.72
2018-08-23T12:39:13.976Z,4.80
2018-08-23T12:41:47.485Z,3.30
2018-08-23T12:44:14.710Z,2.25
2018-08-23T12:46:41.872Z,2.87
2018-08-23T12:49:08.980Z,4.15
2018-08-23T12:51:36.139Z,2.80
2018-08-23T12:54:03.284Z,2.15
2018-08-23T12:56:30.477Z,2.87
2018-08-23T12:58:57.711Z,6.12
2018-08-23T13:01:24.919Z,3.65
2018-08-23T13:03:52.201Z,2.65
2018-08-23T13:06:19.334Z,2.55
2018-08-23T13:08:46.510Z,3.52
2018-08-23T13:11:14.763Z,4.33
2018-08-23T13:13:41.847Z,4.42
2018-08-23T13:16:08.984Z,2.75
2018-08-23T13:18:36.099Z,3.33
2018-08-23T13:21:03.243Z,3.62
2018-08-23T13:23:30.376Z,3.30
2018-08-23T13:25:58.367Z,7.60
2018-08-23T13:28:26.538Z,3.22
2018-08-23T13:30:53.899Z,4.15
2018-08-23T13:33:21.423Z,3.22
2018-08-23T13:35:48.951Z,4.75
2018-08-23T13:38:16.377Z,2.83
2018-08-23T13:40:43.512Z,6.85
2018-08-23T13:43:10.647Z,8.68
2018-08-23T13:45:37.763Z,5.05
2018-08-23T13:48:05.247Z,6.92
2018-08-23T13:50:32.386Z,4.12
2018-08-23T13:52:59.503Z,6.78
2018-08-23T13:55:26.606Z,5.90
2018-08-23T13:57:53.804Z,4.60
2018-08-23T14:00:28.574Z,4.92
2018-08-23T14:02:56.560Z,5.87
2018-08-23T14:05:23.693Z,3.17
2018-08-23T14:07:50.877Z,3.05
2018-08-23T14:10:18.128Z,2.60
2018-08-23T14:12:45.405Z,4.08
2018-08-23T14:15:18.127Z,5.45
2018-08-23T14:17:45.341Z,3.12
2018-08-23T14:20:12.470Z,5.97
2018-08-23T14:22:39.587Z,4.03
2018-08-23T14:25:06.768Z,3.02
2018-08-23T14:27:33.931Z,2.98
2018-08-23T14:30:01.048Z,3.98
2018-08-23T14:32:28.147Z,3.60
2018-08-23T14:34:55.238Z,5.87
2018-08-23T14:37:22.404Z,5.33
2018-08-23T14:39:49.599Z,4.62
2018-08-23T14:42:16.790Z,8.33
2018-08-23T14:44:44.005Z,3.17
2018-08-23T14:47:16.777Z,2.87
2018-08-23T14:49:43.939Z,3.00
2018-08-23T14:52:11.047Z,4.62
2018-08-23T14:54:40.708Z,3.25
2018-08-23T14:57:13.608Z,2.60
2018-08-23T14:59:41.075Z,2.87
2018-08-23T15:02:08.636Z,5.00
2018-08-23T15:04:36.021Z,3.62
2018-08-23T15:07:03.208Z,5.45
2018-08-23T15:09:30.390Z,3.58
2018-08-23T15:11:58.926Z,2.65
2018-08-23T15:14:26.349Z,3.02
2018-08-23T15:16:53.462Z,3.50
2018-08-23T15:19:20.736Z,3.08
2018-08-23T15:21:47.973Z,4.85
2018-08-23T15:24:15.139Z,2.95
2018-08-23T15:26:42.413Z,4.25
2018-08-23T15:29:11.306Z,3.72
2018-08-23T15:31:38.438Z,3.27
2018-08-23T15:34:05.727Z,4.00
2018-08-23T15:36:32.819Z,4.33
2018-08-23T15:38:59.941Z,3.42
2018-08-23T15:41:27.052Z,4.58
2018-08-23T15:43:54.193Z,5.97
2018-08-23T15:46:21.479Z,3.87
2018-08-23T15:48:48.689Z,4.15
2018-08-23T15:51:15.911Z,6.35
2018-08-23T15:53:43.051Z,4.40
2018-08-23T15:56:10.309Z,3.72
2018-08-23T15:58:37.327Z,4.72
2018-08-23T16:01:04.619Z,5.90
2018-08-23T16:03:31.744Z,7.08
2018-08-23T16:05:58.888Z,7.22
2018-08-23T16:08:26.063Z,7.30
2018-08-23T16:10:53.251Z,3.70
2018-08-23T16:13:20.422Z,3.37
2018-08-23T16:15:52.366Z,4.12
2018-08-23T16:18:25.460Z,3.42
2018-08-23T16:20:54.896Z,4.35
2018-08-23T16:23:22.050Z,4.92
2018-08-23T16:25:49.189Z,3.33
2018-08-23T16:28:16.372Z,3.37
2018-08-23T16:30:44.034Z,3.37
2018-08-23T16:33:11.694Z,8.20
2018-08-23T16:35:39.071Z,6.62
2018-08-23T16:38:06.209Z,4.60
2018-08-23T16:40:33.264Z,4.00
2018-08-23T16:43:01.903Z,5.78
2018-08-23T16:45:29.278Z,9.20
2018-08-23T16:47:56.466Z,2.80
2018-08-23T16:50:23.643Z,3.60
2018-08-23T16:52:50.955Z,6.40
2018-08-23T16:55:18.084Z,2.98
2018-08-23T16:57:45.444Z,6.12
2018-08-23T17:00:12.672Z,3.52
2018-08-23T17:02:39.819Z,4.05
2018-08-23T17:05:06.847Z,5.78
2018-08-23T17:07:33.996Z,6.30
2018-08-23T17:10:01.217Z,4.70
2018-08-23T17:12:28.259Z,3.80
2018-08-23T17:14:55.402Z,4.17
2018-08-23T17:17:34.589Z,4.80
2018-08-23T17:20:01.751Z,10.50
2018-08-23T17:22:29.355Z,6.00
2018-08-23T17:24:56.576Z,3.00
2018-08-23T17:27:23.643Z,3.98
2018-08-23T17:29:50.776Z,4.20
2018-08-23T17:32:17.959Z,3.72
2018-08-23T17:34:45.150Z,7.37
2018-08-23T17:37:12.239Z,4.00
2018-08-23T17:39:39.355Z,3.58
2018-08-23T17:42:06.569Z,4.60
2018-08-23T17:44:33.891Z,4.42
2018-08-23T17:47:01.238Z,5.28
2018-08-23T17:49:28.624Z,7.47
2018-08-23T17:51:55.726Z,3.30
2018-08-23T17:54:22.827Z,4.83
2018-08-23T17:56:50.071Z,5.17
2018-08-23T17:59:17.265Z,3.40
2018-08-23T18:01:44.444Z,12.60
2018-08-23T18:04:11.599Z,5.20
2018-08-23T18:06:38.731Z,8.15
2018-08-23T18:09:07.640Z,5.40
2018-08-23T18:11:34.753Z,4.17
2018-08-23T18:14:01.873Z,5.15
2018-08-23T18:16:34.805Z,6.78
2018-08-23T18:19:01.975Z,8.85
2018-08-23T18:21:29.092Z,5.47
2018-08-23T18:23:56.194Z,8.03
2018-08-23T18:26:23.359Z,6.55
2018-08-23T18:28:50.507Z,9.38
2018-08-23T18:31:17.643Z,10.13
2018-08-23T18:33:44.803Z,11.78
2018-08-23T18:36:11.902Z,24.57
2018-08-23T18:38:39.051Z,13.88
2018-08-23T18:41:06.177Z,9.18
2018-08-23T18:43:33.370Z,8.48
2018-08-23T18:46:00.491Z,12.60
2018-08-23T18:48:27.651Z,9.93
2018-08-23T18:50:54.795Z,5.67
2018-08-23T18:53:21.914Z,3.42
2018-08-23T18:55:49.191Z,3.83
2018-08-23T18:58:16.421Z,6.37
2018-08-23T19:00:43.570Z,3.67
2018-08-23T19:03:10.698Z,7.55
2018-08-23T19:05:37.851Z,6.65
2018-08-23T19:08:05.300Z,2.75
2018-08-23T19:10:32.448Z,5.85
2018-08-23T19:12:59.759Z,3.40
2018-08-23T19:17:35.237Z,9.93
2018-08-23T19:20:02.431Z,5.80
2018-08-23T19:22:29.590Z,3.27
2018-08-23T19:24:56.765Z,6.78
2018-08-23T19:27:23.883Z,3.10
2018-08-23T19:29:51.023Z,7.20
2018-08-23T19:32:18.208Z,4.73
2018-08-23T19:34:45.804Z,4.83
2018-08-23T19:37:13.008Z,4.40
2018-08-23T19:39:40.153Z,7.97
2018-08-23T19:42:07.266Z,5.62
2018-08-23T19:44:39.035Z,7.42
2018-08-23T19:47:11.862Z,5.78
2018-08-23T19:49:56.239Z,8.73
2018-08-23T19:52:23.371Z,6.40
2018-08-23T19:54:51.119Z,5.80
2018-08-23T19:57:18.328Z,4.33
2018-08-23T19:59:45.743Z,7.08
2018-08-23T20:02:12.875Z,10.38
2018-08-23T20:04:40.820Z,4.35
2018-08-23T20:07:07.918Z,5.12
2018-08-23T20:09:35.083Z,6.40
2018-08-23T20:12:02.231Z,5.12
2018-08-23T20:14:29.363Z,4.28
2018-08-23T20:16:56.501Z,4.45
2018-08-23T20:19:23.625Z,7.87
2018-08-23T20:21:50.795Z,4.47
2018-08-23T20:24:18.059Z,7.13
2018-08-23T20:26:45.263Z,7.37
2018-08-23T20:29:12.390Z,3.98
2018-08-23T20:31:39.670Z,4.65
2018-08-23T20:34:06.798Z,4.75
2018-08-23T20:36:33.930Z,4.10
2018-08-23T20:39:01.116Z,7.42
2018-08-23T20:41:28.253Z,5.37
2018-08-23T20:43:55.350Z,3.75
2018-08-23T20:46:22.493Z,4.40
2018-08-23T20:48:49.660Z,6.00
2018-08-23T20:51:17.144Z,3.45
2018-08-23T20:53:44.288Z,6.50
2018-08-23T20:56:11.477Z,5.33
2018-08-23T20:58:38.659Z,4.05
2018-08-23T21:01:05.912Z,7.40
2018-08-23T21:03:33.066Z,3.92
2018-08-23T21:06:00.185Z,3.55
2018-08-23T21:08:27.348Z,3.50
2018-08-23T21:10:54.455Z,4.33
2018-08-23T21:13:21.592Z,3.92
2018-08-23T21:15:48.786Z,4.97
2018-08-23T21:18:16.027Z,6.33
2018-08-23T21:20:43.166Z,4.07
2018-08-23T21:23:10.302Z,7.35
2018-08-23T21:25:37.419Z,5.58
2018-08-23T21:28:04.623Z,4.57
2018-08-23T21:30:31.783Z,3.60
2018-08-23T21:32:58.894Z,3.70
2018-08-23T21:35:26.177Z,7.83
2018-08-23T21:37:54.054Z,11.17
2018-08-23T21:40:21.211Z,5.50
2018-08-23T21:42:48.384Z,5.20
2018-08-23T21:45:15.559Z,5.40
2018-08-23T21:47:42.695Z,3.53
2018-08-23T21:50:09.810Z,4.23
2018-08-23T21:52:36.933Z,3.47
2018-08-23T21:55:04.327Z,5.27
2018-08-23T21:57:31.960Z,3.20
2018-08-23T21:59:59.124Z,5.73
2018-08-23T22:02:26.315Z,5.90
2018-08-23T22:04:55.148Z,4.70
2018-08-23T22:07:22.790Z,5.30
2018-08-23T22:09:51.208Z,3.93
2018-08-23T22:12:20.123Z,3.70
2018-08-23T22:14:47.822Z,7.20
2018-08-23T22:17:15.056Z,4.23
2018-08-23T22:19:42.232Z,5.80
2018-08-23T22:22:09.835Z,4.93
2018-08-23T22:24:37.105Z,3.23
2018-08-23T22:27:04.752Z,4.93
2018-08-23T22:29:31.820Z,4.57
2018-08-23T22:31:58.918Z,3.83
2018-08-23T22:34:26.104Z,4.77
2018-08-23T22:36:53.251Z,4.83
2018-08-23T22:39:20.386Z,6.70
2018-08-23T22:41:47.791Z,5.73
2018-08-23T22:44:15.805Z,8.40
2018-08-23T22:46:44.062Z,3.80
2018-08-23T22:49:11.291Z,6.47
2018-08-23T22:51:38.452Z,5.80
2018-08-23T22:54:05.410Z,5.87
2018-08-23T22:56:32.563Z,6.00
2018-08-23T22:58:59.752Z,11.57
2018-08-23T23:01:26.925Z,4.77
2018-08-23T23:03:59.759Z,4.27
2018-08-23T23:06:26.939Z,4.80
2018-08-23T23:08:54.050Z,5.77
2018-08-23T23:11:21.151Z,5.97
2018-08-23T23:13:48.396Z,5.40
2018-08-23T23:16:15.604Z,6.07
2018-08-23T23:18:42.708Z,7.87
2018-08-23T23:21:09.841Z,4.07
2018-08-23T23:23:37.038Z,3.07
2018-08-23T23:26:04.177Z,7.23
2018-08-23T23:28:31.282Z,4.30
2018-08-23T23:30:58.423Z,2.83
2018-08-23T23:33:25.546Z,6.70
2018-08-23T23:35:52.698Z,6.10
2018-08-23T23:38:19.863Z,5.10
2018-08-23T23:40:47.080Z,4.23
2018-08-23T23:43:14.217Z,4.93
2018-08-23T23:45:41.353Z,7.53
2018-08-23T23:48:08.471Z,5.07
2018-08-23T23:50:35.586Z,5.13
2018-08-23T23:53:02.718Z,6.13
2018-08-23T23:55:29.862Z,3.93
2018-08-23T23:57:57.036Z,7.67
